createdAt,value
2018-08-07T00:00:33.458Z,99769.33
2018-08-07T00:03:02.189Z,99762.54
2018-08-07T00:05:30.918Z,99765.80
2018-08-07T00:07:59.654Z,99759.83
2018-08-07T00:10:28.349Z,99765.53
2018-08-07T00:12:57.077Z,99767.72
2018-08-07T00:15:27.562Z,99766.63
2018-08-07T00:17:56.308Z,99758.48
2018-08-07T00:20:25.057Z,99754.69
2018-08-07T00:22:53.766Z,99762.28
2018-08-07T00:25:22.470Z,99758.76
2018-08-07T00:27:51.200Z,99764.98
2018-08-07T00:30:19.893Z,99769.09
2018-08-07T00:32:48.622Z,99764.73
2018-08-07T00:35:18.717Z,99759.56
2018-08-07T00:37:47.842Z,99763.38
2018-08-07T00:40:17.632Z,99765.27
2018-08-07T00:42:46.835Z,99764.73
2018-08-07T00:45:21.327Z,99770.42
2018-08-07T00:47:50.550Z,99769.89
2018-08-07T00:50:20.905Z,99762.02
2018-08-07T00:52:50.587Z,99763.36
2018-08-07T00:55:19.959Z,99769.63
2018-08-07T00:57:49.261Z,99766.91
2018-08-07T01:00:18.013Z,99765.81
2018-08-07T01:02:46.748Z,99765.27
2018-08-07T01:05:17.380Z,99763.08
2018-08-07T01:07:46.092Z,99761.20
2018-08-07T01:10:16.500Z,99763.38
2018-08-07T01:12:45.200Z,99760.09
2018-08-07T01:15:16.190Z,99766.90
2018-08-07T01:17:45.442Z,99761.99
2018-08-07T01:20:18.540Z,99763.36
2018-08-07T01:22:47.245Z,99764.16
2018-08-07T01:25:20.988Z,99766.88
2018-08-07T01:27:49.688Z,99764.45
2018-08-07T01:30:28.846Z,99766.34
2018-08-07T01:32:57.855Z,99767.69
2018-08-07T01:35:27.625Z,99770.95
2018-08-07T01:37:56.348Z,99766.34
2018-08-07T01:40:25.153Z,99766.58
2018-08-07T01:42:53.901Z,99763.03
2018-08-07T01:45:22.637Z,99762.75
2018-08-07T01:47:51.345Z,99761.98
2018-08-07T01:50:20.075Z,99765.80
2018-08-07T01:52:48.794Z,99766.08
2018-08-07T01:55:25.977Z,99761.99
2018-08-07T01:57:54.664Z,99765.52
2018-08-07T02:00:23.522Z,99765.53
2018-08-07T02:02:52.448Z,99766.63
2018-08-07T02:05:21.168Z,99773.14
2018-08-07T02:07:49.852Z,99773.37
2018-08-07T02:10:19.488Z,99775.80
2018-08-07T02:12:48.190Z,99775.50
2018-08-07T02:15:17.312Z,99776.05
2018-08-07T02:17:46.009Z,99774.95
2018-08-07T02:20:15.953Z,99774.97
2018-08-07T02:22:45.181Z,99771.70
2018-08-07T02:25:16.209Z,99778.48
2018-08-07T02:27:45.791Z,99779.05
2018-08-07T02:30:15.438Z,99780.41
2018-08-07T02:32:44.252Z,99781.48
2018-08-07T02:35:14.363Z,99781.27
2018-08-07T02:37:44.052Z,99779.38
2018-08-07T02:40:14.025Z,99775.84
2018-08-07T02:42:43.442Z,99777.23
2018-08-07T02:45:15.175Z,99778.83
2018-08-07T02:47:44.921Z,99780.98
2018-08-07T02:50:16.090Z,99783.38
2018-08-07T02:52:44.830Z,99789.60
2018-08-07T02:55:13.570Z,99787.45
2018-08-07T02:57:42.857Z,99786.36
2018-08-07T03:00:16.970Z,99787.41
2018-08-07T03:02:46.109Z,99789.82
2018-08-07T03:05:14.905Z,99790.95
2018-08-07T03:07:44.029Z,99784.42
2018-08-07T03:10:12.840Z,99789.83
2018-08-07T03:12:41.562Z,99789.55
2018-08-07T03:15:15.857Z,99794.17
2018-08-07T03:17:45.578Z,99788.72
2018-08-07T03:20:14.398Z,99789.78
2018-08-07T03:22:43.113Z,99795.50
2018-08-07T03:25:12.988Z,99801.81
2018-08-07T03:27:42.353Z,99803.73
2018-08-07T03:30:13.903Z,99804.38
2018-08-07T03:32:42.914Z,99806.00
2018-08-07T03:35:11.650Z,99809.25
2018-08-07T03:37:40.829Z,99805.17
2018-08-07T03:40:12.902Z,99805.17
2018-08-07T03:42:41.601Z,99812.50
2018-08-07T03:45:12.402Z,99805.20
2018-08-07T03:47:41.154Z,99805.77
2018-08-07T03:50:10.671Z,99806.56
2018-08-07T03:52:39.424Z,99805.77
2018-08-07T03:55:11.668Z,99808.48
2018-08-07T03:57:41.057Z,99814.80
2018-08-07T04:00:16.271Z,99812.60
2018-08-07T04:02:45.168Z,99808.25
2018-08-07T04:05:13.986Z,99809.23
2018-08-07T04:07:42.885Z,99805.66
2018-08-07T04:10:13.782Z,99809.06
2018-08-07T04:12:42.524Z,99809.38
2018-08-07T04:15:13.002Z,99811.77
2018-08-07T04:17:42.226Z,99818.61
2018-08-07T04:20:13.479Z,99815.92
2018-08-07T04:22:42.244Z,99813.14
2018-08-07T04:25:11.079Z,99817.30
2018-08-07T04:27:39.821Z,99813.66
2018-08-07T04:30:10.852Z,99818.00
2018-08-07T04:32:39.884Z,99819.52
2018-08-07T04:35:08.619Z,99817.02
2018-08-07T04:37:37.525Z,99817.54
2018-08-07T04:40:07.162Z,99821.76
2018-08-07T04:42:39.005Z,99825.55
2018-08-07T04:45:12.102Z,99818.09
2018-08-07T04:47:40.868Z,99818.45
2018-08-07T04:50:10.267Z,99816.25
2018-08-07T04:52:39.299Z,99823.66
2018-08-07T04:55:08.953Z,99821.48
2018-08-07T04:57:37.737Z,99825.63
2018-08-07T05:00:10.301Z,99832.38
2018-08-07T05:02:39.162Z,99834.21
2018-08-07T05:05:14.493Z,99837.82
2018-08-07T05:07:43.286Z,99843.55
2018-08-07T05:10:14.460Z,99845.91
2018-08-07T05:12:44.024Z,99847.06
2018-08-07T05:15:13.090Z,99849.44
2018-08-07T05:17:42.913Z,99850.78
2018-08-07T05:20:11.693Z,99849.84
2018-08-07T05:22:40.848Z,99859.77
2018-08-07T05:25:11.026Z,99860.08
2018-08-07T05:27:39.921Z,99857.86
2018-08-07T05:30:10.471Z,99852.81
2018-08-07T05:32:39.206Z,99854.73
2018-08-07T05:35:08.736Z,99856.70
2018-08-07T05:37:37.619Z,99857.34
2018-08-07T05:40:06.999Z,99863.99
2018-08-07T05:42:35.768Z,99857.64
2018-08-07T05:45:05.558Z,99864.08
2018-08-07T05:47:34.313Z,99865.20
2018-08-07T05:50:03.195Z,99863.65
2018-08-07T05:52:31.885Z,99856.78
2018-08-07T05:55:00.639Z,99854.70
2018-08-07T05:57:29.493Z,99857.23
2018-08-07T05:59:58.224Z,99857.78
2018-08-07T06:02:26.961Z,99866.23
2018-08-07T06:04:56.082Z,99871.67
2018-08-07T06:07:24.790Z,99866.72
2018-08-07T06:09:53.545Z,99869.26
2018-08-07T06:12:22.274Z,99863.91
2018-08-07T06:14:51.217Z,99849.01
2018-08-07T06:17:20.025Z,99844.20
2018-08-07T06:19:48.808Z,99848.63
2018-08-07T06:22:17.570Z,99850.06
2018-08-07T06:24:46.295Z,99850.13
2018-08-07T06:27:15.154Z,99856.36
2018-08-07T06:29:43.884Z,99852.36
2018-08-07T06:32:12.665Z,99853.59
2018-08-07T06:34:41.419Z,99853.61
2018-08-07T06:37:10.121Z,99853.02
2018-08-07T06:39:38.813Z,99849.36
2018-08-07T06:42:07.588Z,99855.85
2018-08-07T06:44:39.401Z,99855.68
2018-08-07T06:47:08.336Z,99854.28
2018-08-07T06:49:37.071Z,99852.11
2018-08-07T06:52:05.798Z,99858.42
2018-08-07T06:54:34.554Z,99850.30
2018-08-07T06:57:03.469Z,99851.39
2018-08-07T06:59:32.642Z,99855.08
2018-08-07T07:02:01.370Z,99854.69
2018-08-07T07:04:30.211Z,99852.44
2018-08-07T07:06:58.968Z,99856.63
2018-08-07T07:09:27.761Z,99850.05
2018-08-07T07:11:56.566Z,99851.15
2018-08-07T07:14:25.301Z,99849.09
2018-08-07T07:16:54.020Z,99858.72
2018-08-07T07:19:22.754Z,99857.10
2018-08-07T07:21:51.514Z,99856.63
2018-08-07T07:24:20.304Z,99856.14
2018-08-07T07:26:49.051Z,99860.89
2018-08-07T07:29:17.815Z,99860.94
2018-08-07T07:31:46.582Z,99868.58
2018-08-07T07:34:15.357Z,99869.90
2018-08-07T07:36:44.133Z,99861.30
2018-08-07T07:39:12.886Z,99861.83
2018-08-07T07:41:41.598Z,99859.39
2018-08-07T07:44:10.412Z,99855.09
2018-08-07T07:46:39.192Z,99848.47
2018-08-07T07:49:08.355Z,99851.15
2018-08-07T07:51:37.092Z,99856.33
2018-08-07T07:54:05.916Z,99857.88
2018-08-07T07:56:34.884Z,99856.34
2018-08-07T07:59:03.638Z,99860.86
2018-08-07T08:01:32.355Z,99852.73
2018-08-07T08:04:01.085Z,99855.84
2018-08-07T08:06:30.378Z,99853.78
2018-08-07T08:08:59.243Z,99856.50
2018-08-07T08:11:29.717Z,99857.44
2018-08-07T08:14:00.272Z,99851.80
2018-08-07T08:16:31.559Z,99848.63
2018-08-07T08:19:04.234Z,99844.04
2018-08-07T08:21:35.229Z,99850.06
2018-08-07T08:24:06.026Z,99853.91
2018-08-07T08:26:37.486Z,99847.98
2018-08-07T08:29:09.300Z,99845.16
2018-08-07T08:31:40.814Z,99849.17
2018-08-07T08:34:12.259Z,99841.55
2018-08-07T08:36:44.070Z,99844.89
2018-08-07T08:39:18.591Z,99846.44
2018-08-07T08:41:50.563Z,99844.41
2018-08-07T08:44:22.317Z,99834.88
2018-08-07T08:46:51.219Z,99840.03
2018-08-07T08:49:20.078Z,99838.07
2018-08-07T08:51:48.822Z,99839.34
2018-08-07T08:54:17.559Z,99836.50
2018-08-07T08:56:46.411Z,99837.81
2018-08-07T08:59:15.257Z,99835.98
2018-08-07T09:01:43.985Z,99836.14
2018-08-07T09:04:12.738Z,99829.42
2018-08-07T09:06:41.472Z,99833.32
2018-08-07T09:09:12.641Z,99829.66
2018-08-07T09:11:41.526Z,99831.36
2018-08-07T09:14:11.377Z,99826.67
2018-08-07T09:16:40.497Z,99826.65
2018-08-07T09:19:09.329Z,99824.77
2018-08-07T09:21:38.660Z,99823.47
2018-08-07T09:24:07.919Z,99820.60
2018-08-07T09:26:36.682Z,99820.94
2018-08-07T09:29:05.490Z,99817.48
2018-08-07T09:31:34.555Z,99828.23
2018-08-07T09:34:03.297Z,99826.53
2018-08-07T09:36:32.051Z,99815.80
2018-08-07T09:39:00.777Z,99823.61
2018-08-07T09:41:29.531Z,99825.52
2018-08-07T09:43:58.276Z,99822.31
2018-08-07T09:46:27.053Z,99816.91
2018-08-07T09:48:55.829Z,99816.99
2018-08-07T09:51:24.541Z,99784.50
2018-08-07T09:53:53.285Z,99805.12
2018-08-07T09:56:22.015Z,99810.02
2018-08-07T09:58:50.773Z,99803.84
2018-08-07T10:01:24.641Z,99796.72
2018-08-07T10:03:53.345Z,99785.20
2018-08-07T10:06:22.246Z,99787.77
2018-08-07T10:08:50.985Z,99788.54
2018-08-07T10:11:19.755Z,99786.52
2018-08-07T10:13:48.498Z,99789.05
2018-08-07T10:16:17.250Z,99785.61
2018-08-07T10:18:45.969Z,99783.52
2018-08-07T10:21:14.679Z,99772.19
2018-08-07T10:23:43.401Z,99777.55
2018-08-07T10:26:12.125Z,99772.55
2018-08-07T10:28:40.854Z,99766.94
2018-08-07T10:31:09.847Z,99761.89
2018-08-07T10:33:38.758Z,99769.64
2018-08-07T10:36:07.556Z,99764.75
2018-08-07T10:38:36.330Z,99761.79
2018-08-07T10:41:05.217Z,99762.84
2018-08-07T10:43:33.963Z,99755.34
2018-08-07T10:46:02.775Z,99745.67
2018-08-07T10:48:31.589Z,99747.16
2018-08-07T10:51:00.592Z,99746.81
2018-08-07T10:53:29.423Z,99747.52
2018-08-07T10:55:58.151Z,99733.86
2018-08-07T10:58:26.980Z,99727.25
2018-08-07T11:00:55.745Z,99726.05
2018-08-07T11:03:24.499Z,99722.57
2018-08-07T11:05:53.452Z,99712.86
2018-08-07T11:08:22.213Z,99710.98
2018-08-07T11:10:51.008Z,99714.22
2018-08-07T11:13:19.757Z,99702.70
2018-08-07T11:15:48.487Z,99704.16
2018-08-07T11:18:17.228Z,99699.65
2018-08-07T11:20:45.999Z,99698.61
2018-08-07T11:23:14.814Z,99691.04
2018-08-07T11:25:43.573Z,99700.57
2018-08-07T11:28:12.360Z,99699.16
2018-08-07T11:30:41.108Z,99695.60
2018-08-07T11:33:09.894Z,99701.77
2018-08-07T11:35:38.651Z,99695.89
2018-08-07T11:38:07.442Z,99695.27
2018-08-07T11:40:36.179Z,99685.77
2018-08-07T11:43:04.931Z,99688.44
2018-08-07T11:45:34.109Z,99687.59
2018-08-07T11:48:03.016Z,99682.44
2018-08-07T11:50:32.799Z,99676.79
2018-08-07T11:53:02.415Z,99674.03
2018-08-07T11:55:31.601Z,99667.23
2018-08-07T11:58:00.830Z,99662.23
2018-08-07T12:00:32.482Z,99661.10
2018-08-07T12:03:01.303Z,99661.30
2018-08-07T12:05:30.080Z,99665.55
2018-08-07T12:07:58.914Z,99664.02
2018-08-07T12:10:27.718Z,99661.84
2018-08-07T12:12:56.472Z,99657.70
2018-08-07T12:15:25.965Z,99659.92
2018-08-07T12:17:54.958Z,99668.61
2018-08-07T12:20:23.742Z,99659.38
2018-08-07T12:22:52.938Z,99663.88
2018-08-07T12:25:21.934Z,99661.66
2018-08-07T12:27:50.990Z,99656.98
2018-08-07T12:37:07.892Z,99640.63
2018-08-07T12:39:36.685Z,99644.13
2018-08-07T12:42:05.552Z,99639.16
2018-08-07T12:44:34.369Z,99636.78
2018-08-07T12:47:03.227Z,99636.45
2018-08-07T12:49:32.091Z,99634.83
2018-08-07T12:52:00.809Z,99641.63
2018-08-07T12:54:29.622Z,99647.94
2018-08-07T12:56:58.354Z,99643.33
2018-08-07T12:59:28.093Z,99649.73
2018-08-07T13:01:57.088Z,99651.89
2018-08-07T13:04:25.878Z,99650.73
2018-08-07T13:06:54.695Z,99644.78
2018-08-07T13:09:23.600Z,99642.77
2018-08-07T13:11:52.565Z,99643.56
2018-08-07T13:14:21.401Z,99638.44
2018-08-07T13:16:50.206Z,99640.45
2018-08-07T13:19:19.031Z,99637.88
2018-08-07T13:21:47.816Z,99633.17
2018-08-07T13:24:16.566Z,99626.92
2018-08-07T13:26:45.311Z,99630.38
2018-08-07T13:29:14.055Z,99628.91
2018-08-07T13:31:42.858Z,99618.00
2018-08-07T13:34:11.660Z,99624.86
2018-08-07T13:36:40.491Z,99615.08
2018-08-07T13:39:10.565Z,99629.84
2018-08-07T13:41:39.321Z,99626.86
2018-08-07T13:44:08.807Z,99625.70
2018-08-07T13:46:37.703Z,99625.66
2018-08-07T13:49:06.865Z,99620.05
2018-08-07T13:51:35.641Z,99621.64
2018-08-07T13:54:04.448Z,99617.47
2018-08-07T13:56:33.239Z,99620.10
2018-08-07T13:59:02.076Z,99621.12
2018-08-07T14:01:31.372Z,99619.98
2018-08-07T14:04:00.107Z,99622.64
2018-08-07T14:06:28.877Z,99619.39
2018-08-07T14:08:57.791Z,99617.76
2018-08-07T14:11:26.569Z,99629.30
2018-08-07T14:13:55.467Z,99629.03
2018-08-07T14:16:24.739Z,99629.30
2018-08-07T14:18:53.772Z,99636.31
2018-08-07T14:21:22.993Z,99630.78
2018-08-07T14:23:52.309Z,99635.02
2018-08-07T14:26:21.366Z,99633.89
2018-08-07T14:28:50.390Z,99631.81
2018-08-07T14:31:19.594Z,99629.40
2018-08-07T14:33:48.816Z,99632.00
2018-08-07T14:36:18.089Z,99631.41
2018-08-07T14:38:47.358Z,99641.89
2018-08-07T14:41:16.693Z,99647.52
2018-08-07T14:43:45.963Z,99652.12
2018-08-07T14:46:15.603Z,99654.02
2018-08-07T14:48:44.875Z,99658.39
2018-08-07T14:51:14.232Z,99662.18
2018-08-07T14:53:42.997Z,99656.33
2018-08-07T14:56:11.755Z,99653.23
2018-08-07T14:58:40.840Z,99655.66
2018-08-07T15:01:09.587Z,99647.41
2018-08-07T15:03:38.342Z,99653.34
2018-08-07T15:06:07.090Z,99657.76
2018-08-07T15:08:35.826Z,99659.55
2018-08-07T15:11:04.759Z,99660.62
2018-08-07T15:13:33.520Z,99649.34
2018-08-07T15:16:02.252Z,99657.61
2018-08-07T15:18:30.992Z,99657.30
2018-08-07T15:20:59.730Z,99657.36
2018-08-07T15:23:28.495Z,99662.89
2018-08-07T15:25:57.211Z,99662.03
2018-08-07T15:28:25.906Z,99666.25
2018-08-07T15:30:54.868Z,99666.15
2018-08-07T15:33:23.586Z,99666.02
2018-08-07T15:35:52.350Z,99660.82
2018-08-07T15:38:21.891Z,99662.20
2018-08-07T15:40:50.582Z,99655.64
2018-08-07T15:43:19.282Z,99650.66
2018-08-07T15:45:49.809Z,99644.66
2018-08-07T15:48:18.613Z,99651.92
2018-08-07T15:50:47.354Z,99650.99
2018-08-07T15:53:16.101Z,99660.80
2018-08-07T15:55:44.856Z,99651.37
2018-08-07T15:58:13.641Z,99648.79
2018-08-07T16:00:43.624Z,99650.83
2018-08-07T16:03:13.074Z,99665.56
2018-08-07T16:05:41.818Z,99661.78
2018-08-07T16:08:10.544Z,99663.31
2018-08-07T16:10:39.267Z,99665.40
2018-08-07T16:13:08.058Z,99660.69
2018-08-07T16:15:36.822Z,99667.89
2018-08-07T16:18:06.645Z,99675.05
2018-08-07T16:20:35.398Z,99682.55
2018-08-07T16:23:04.117Z,99686.33
2018-08-07T16:25:32.982Z,99693.73
2018-08-07T16:28:01.715Z,99700.78
2018-08-07T16:30:30.519Z,99699.05
2018-08-07T16:32:59.294Z,99701.68
2018-08-07T16:35:28.107Z,99697.22
2018-08-07T16:37:56.868Z,99699.17
2018-08-07T16:40:25.961Z,99705.58
2018-08-07T16:42:55.173Z,99704.19
2018-08-07T16:45:24.784Z,99711.66
2018-08-07T16:47:56.750Z,99713.47
2018-08-07T16:50:29.808Z,99721.36
2018-08-07T16:53:01.473Z,99725.45
2018-08-07T16:55:34.224Z,99723.79
2018-08-07T16:58:03.132Z,99727.67
2018-08-07T17:00:32.029Z,99724.28
2018-08-07T17:03:00.787Z,99725.54
2018-08-07T17:05:29.564Z,99721.38
2018-08-07T17:07:58.392Z,99727.84
2018-08-07T17:10:29.095Z,99727.81
2018-08-07T17:12:57.881Z,99732.13
2018-08-07T17:15:26.658Z,99734.75
2018-08-07T17:17:55.461Z,99746.22
2018-08-07T17:20:24.308Z,99756.36
2018-08-07T17:22:53.594Z,99751.81
2018-08-07T17:25:23.216Z,99762.22
2018-08-07T17:27:52.076Z,99766.28
2018-08-07T17:30:22.503Z,99769.77
2018-08-07T17:32:51.297Z,99775.86
2018-08-07T17:35:21.450Z,99782.91
2018-08-07T17:37:51.613Z,99783.12
2018-08-07T17:40:21.738Z,99782.75
2018-08-07T17:42:50.469Z,99783.47
2018-08-07T17:45:19.643Z,99781.69
2018-08-07T17:47:48.542Z,99786.27
2018-08-07T17:50:18.917Z,99786.75
2018-08-07T17:52:47.696Z,99798.41
2018-08-07T17:55:16.628Z,99799.20
2018-08-07T17:57:45.565Z,99800.17
2018-08-07T18:00:18.949Z,99807.16
2018-08-07T18:02:47.699Z,99806.23
2018-08-07T18:05:16.575Z,99807.02
2018-08-07T18:07:47.061Z,99813.47
2018-08-07T18:10:17.394Z,99812.27
2018-08-07T18:12:46.253Z,99807.09
2018-08-07T18:15:16.403Z,99807.62
2018-08-07T18:17:49.793Z,99800.00
2018-08-07T18:20:21.666Z,99803.59
2018-08-07T18:22:51.636Z,99808.96
2018-08-07T18:25:20.397Z,99808.03
2018-08-07T18:27:49.191Z,99802.17
2018-08-07T18:30:21.907Z,99807.56
2018-08-07T18:32:50.669Z,99803.24
2018-08-07T18:35:22.706Z,99793.66
2018-08-07T18:37:51.521Z,99804.66
2018-08-07T18:40:20.407Z,99805.16
2018-08-07T18:42:49.630Z,99808.33
2018-08-07T18:45:18.343Z,99811.98
2018-08-07T18:47:47.498Z,99803.13
2018-08-07T18:50:18.041Z,99802.67
2018-08-07T18:52:46.757Z,99796.23
2018-08-07T18:55:15.778Z,99798.58
2018-08-07T18:57:45.547Z,99797.59
2018-08-07T19:00:17.188Z,99796.95
2018-08-07T19:02:45.936Z,99797.42
2018-08-07T19:05:18.094Z,99806.73
2018-08-07T19:07:46.890Z,99805.67
2018-08-07T19:10:15.952Z,99812.58
2018-08-07T19:12:45.561Z,99810.49
2018-08-07T19:15:21.833Z,99806.48
2018-08-07T19:17:50.691Z,99808.74
2018-08-07T19:20:21.043Z,99807.69
2018-08-07T19:22:50.289Z,99802.41
2018-08-07T19:25:19.677Z,99806.61
2018-08-07T19:27:48.491Z,99806.97
2018-08-07T19:30:18.738Z,99803.73
2018-08-07T19:32:47.453Z,99805.98
2018-08-07T19:35:16.237Z,99801.52
2018-08-07T19:37:45.002Z,99807.62
2018-08-07T19:40:15.481Z,99815.91
2018-08-07T19:42:45.057Z,99815.12
2018-08-07T19:45:14.232Z,99817.18
2018-08-07T19:47:43.664Z,99813.28
2018-08-07T19:50:13.797Z,99820.84
2018-08-07T19:52:42.649Z,99826.98
2018-08-07T19:55:15.859Z,99816.34
2018-08-07T19:57:44.956Z,99820.00
2018-08-07T20:00:21.271Z,99816.52
2018-08-07T20:02:50.550Z,99824.78
2018-08-07T20:05:19.367Z,99826.25
2018-08-07T20:07:48.428Z,99832.94
2018-08-07T20:10:18.024Z,99837.34
2018-08-07T20:12:47.369Z,99837.23
2018-08-07T20:15:21.961Z,99838.36
2018-08-07T20:17:51.269Z,99847.41
2018-08-07T20:20:20.322Z,99854.84
2018-08-07T20:22:49.097Z,99852.20
2018-08-07T20:25:18.081Z,99858.81
2018-08-07T20:27:46.872Z,99859.62
2018-08-07T20:30:18.195Z,99853.63
2018-08-07T20:32:47.864Z,99853.11
2018-08-07T20:35:16.592Z,99855.89
2018-08-07T20:37:45.489Z,99853.66
2018-08-07T20:40:18.531Z,99862.11
2018-08-07T20:42:47.613Z,99858.32
2018-08-07T20:45:16.876Z,99862.71
2018-08-07T20:47:45.611Z,99861.20
2018-08-07T20:50:16.869Z,99869.34
2018-08-07T20:52:46.141Z,99868.62
2018-08-07T20:55:15.268Z,99868.33
2018-08-07T20:57:44.098Z,99866.77
2018-08-07T21:00:17.149Z,99868.08
2018-08-07T21:02:46.046Z,99870.55
2018-08-07T21:05:14.903Z,99880.52
2018-08-07T21:07:43.875Z,99876.56
2018-08-07T21:10:14.596Z,99877.69
2018-08-07T21:12:43.712Z,99883.77
2018-08-07T21:15:13.168Z,99890.94
2018-08-07T21:17:42.060Z,99885.55
2018-08-07T21:20:14.594Z,99892.70
2018-08-07T21:22:43.579Z,99883.52
2018-08-07T21:25:14.906Z,99883.56
2018-08-07T21:27:44.260Z,99888.69
2018-08-07T21:30:15.995Z,99889.20
2018-08-07T21:32:44.850Z,99888.09
2018-08-07T21:35:13.753Z,99891.34
2018-08-07T21:37:42.755Z,99898.69
2018-08-07T21:40:19.148Z,99898.45
2018-08-07T21:42:48.527Z,99898.75
2018-08-07T21:45:17.503Z,99903.66
2018-08-07T21:47:46.496Z,99900.66
2018-08-07T21:50:17.099Z,99901.92
2018-08-07T21:52:45.960Z,99903.91
2018-08-07T21:55:16.059Z,99903.43
2018-08-07T21:57:44.964Z,99901.84
2018-08-07T22:00:18.198Z,99897.72
2018-08-07T22:02:47.596Z,99897.48
2018-08-07T22:05:16.423Z,99891.29
2018-08-07T22:07:45.194Z,99887.23
2018-08-07T22:10:16.645Z,99892.97
2018-08-07T22:12:45.771Z,99890.31
2018-08-07T22:15:15.383Z,99897.38
2018-08-07T22:17:44.763Z,99902.28
2018-08-07T22:20:14.254Z,99903.47
2018-08-07T22:22:43.182Z,99899.44
2018-08-07T22:25:12.110Z,99905.98
2018-08-07T22:27:40.982Z,99896.52
2018-08-07T22:30:12.692Z,99898.45
2018-08-07T22:32:41.503Z,99900.91
2018-08-07T22:35:10.438Z,99909.66
2018-08-07T22:37:39.821Z,99906.92
2018-08-07T22:40:09.276Z,99904.48
2018-08-07T22:42:38.148Z,99907.48
2018-08-07T22:45:09.099Z,99900.38
2018-08-07T22:47:37.970Z,99906.86
2018-08-07T22:50:07.664Z,99913.09
2018-08-07T22:52:36.424Z,99913.05
2018-08-07T22:55:05.915Z,99905.48
2018-08-07T22:57:34.668Z,99899.50
2018-08-07T23:00:03.453Z,99896.46
2018-08-07T23:02:32.169Z,99899.48
2018-08-07T23:05:00.888Z,99901.91
2018-08-07T23:07:29.630Z,99896.23
2018-08-07T23:09:58.322Z,99903.66
2018-08-07T23:12:27.024Z,99897.20
2018-08-07T23:14:55.795Z,99901.80
2018-08-07T23:17:24.522Z,99902.92
2018-08-07T23:19:53.269Z,99899.39
2018-08-07T23:22:21.998Z,99900.22
2018-08-07T23:24:50.744Z,99904.03
2018-08-07T23:27:19.742Z,99899.17
2018-08-07T23:29:48.481Z,99907.34
2018-08-07T23:32:17.244Z,99903.23
2018-08-07T23:34:46.006Z,99900.25
2018-08-07T23:37:14.776Z,99900.25
2018-08-07T23:39:43.566Z,99905.12
2018-08-07T23:42:12.332Z,99913.31
2018-08-07T23:44:41.225Z,99919.27
2018-08-07T23:47:10.161Z,99913.31
2018-08-07T23:49:38.902Z,99922.03
2018-08-07T23:52:07.753Z,99921.22
2018-08-07T23:54:36.499Z,99923.11
2018-08-07T23:57:05.242Z,99919.59
2018-08-07T23:59:33.987Z,99920.69
